Ice Star — OUJK2 — position and weather

sailwx.info

Track history (hours):
 
Tides and Currents Weather Stations Pressure Air Temp Water Temp Dewpoint Dewpoint Depression Visibility Wind Speed Wind Dir Waves Ship Positions

Ice Star

Last reported at 2015-Jan-25 01:33 UTC. Time now 2015-Jan-25 14:24 UTC.
Position N 57°50' E 010°24'.

Length 367 m; draft 12.3 m.

Type: Ship. MMSI: 220596000.

Date/timePositionNaut miles runAvg speedWind from/ knotsBaromVisibWave heightAir tempDewpointWater temp
2015-Jan-25 01:33N 57°50' E 010°24'1413.5
2015-Jan-25 00:33N 57°50' E 010°49'1414.1
2015-Jan-24 23:34N 57°44' E 011°13'1413.5
2015-Jan-24 22:33N 57°37' E 011°35'9 9.2
2015-Jan-24 21:33N 57°41' E 011°50'1 0.8
2015-Jan-24 20:31N 57°41' E 011°52'0 0.0
2015-Jan-24 19:31N 57°41' E 011°52'0 0.0
2015-Jan-24 18:31N 57°41' E 011°52'0 0.0
2015-Jan-24 17:31N 57°41' E 011°52'0 0.0
2015-Jan-24 16:28N 57°41' E 011°52'0 0.0
2015-Jan-24 15:31N 57°41' E 011°52'0 0.0
2015-Jan-24 14:31N 57°41' E 011°52'0 0.0
2015-Jan-24 13:31N 57°41' E 011°52'0 0.0
2015-Jan-24 12:31N 57°41' E 011°52'0 0.0
2015-Jan-24 11:31N 57°41' E 011°52'0 0.0
2015-Jan-24 10:31N 57°41' E 011°52'0 0.0
2015-Jan-24 09:31N 57°41' E 011°52'0 0.0
2015-Jan-24 08:31N 57°41' E 011°52'0 0.0
2015-Jan-24 07:31N 57°41' E 011°52'0 0.0
2015-Jan-24 06:31N 57°41' E 011°52'0 0.0
2015-Jan-24 05:31N 57°41' E 011°52'0 0.0
2015-Jan-24 04:31N 57°41' E 011°52'0 0.0
2015-Jan-24 03:31N 57°41' E 011°52'0 0.0
2015-Jan-24 02:31N 57°41' E 011°52'0 0.0
2015-Jan-24 01:28N 57°41' E 011°52'0 0.0
2015-Jan-24 00:31N 57°41' E 011°52'0 0.0
2015-Jan-23 23:31N 57°41' E 011°52'0 0.0
2015-Jan-23 22:31N 57°41' E 011°52'0 0.0
2015-Jan-23 21:28N 57°41' E 011°52'0 0.0
2015-Jan-23 20:31N 57°41' E 011°52'0 0.0
2015-Jan-23 19:31N 57°41' E 011°52'0 0.0
2015-Jan-23 18:31N 57°41' E 011°52'0 0.0
2015-Jan-23 17:31N 57°41' E 011°52'0 0.0
2015-Jan-23 16:31N 57°41' E 011°52'0 0.0
2015-Jan-23 15:31N 57°41' E 011°52'0 0.0
2015-Jan-23 14:31N 57°41' E 011°52'1 1.1
2015-Jan-23 13:33N 57°41' E 011°50'9 9.3
2015-Jan-23 12:33N 57°35' E 011°36'1010.5
2015-Jan-23 11:33N 57°41' E 011°19'1010.3
2015-Jan-23 10:33N 57°46' E 011°02'1514.9
2015-Jan-23 09:33N 57°50' E 010°35'1515.2
2015-Jan-23 08:33N 57°50' E 010°07'21413.0
2015-Jan-22 16:08N 54°43' E 007°03'915.2
2015-Jan-22 15:31N 54°34' E 007°10'1515.5
2015-Jan-22 14:33N 54°21' E 007°21'1515.3
2015-Jan-22 13:33N 54°07' E 007°33'1515.2
2015-Jan-22 12:33N 53°54' E 007°45'1414.5
2015-Jan-22 11:33N 53°48' E 008°08'1312.8
2015-Jan-22 10:33N 53°40' E 008°23'6 6.2
2015-Jan-22 09:33N 53°36' E 008°31'0 0.3
2015-Jan-22 08:32N 53°36' E 008°31'0 0.0
2015-Jan-22 07:32N 53°36' E 008°31'0 0.0
2015-Jan-22 06:32N 53°36' E 008°31'0 0.0
2015-Jan-22 05:29N 53°36' E 008°31'0 0.0
2015-Jan-22 04:32N 53°36' E 008°31'0 0.0
2015-Jan-22 03:32N 53°36' E 008°31'0 0.0
2015-Jan-22 02:32N 53°36' E 008°31'0 0.0
2015-Jan-22 01:32N 53°36' E 008°31'0 0.0
2015-Jan-22 00:32N 53°36' E 008°31'0 0.0
2015-Jan-21 23:32N 53°36' E 008°31'0 0.0
2015-Jan-21 22:50N 53°36' E 008°31'0 0.1
2015-Jan-21 22:41N 53°36' E 008°31'0 0.0
2015-Jan-21 22:29N 53°36' E 008°31'0 0.0
2015-Jan-21 21:32N 53°36' E 008°31'0 0.0
2015-Jan-21 20:32N 53°36' E 008°31'0 0.0
2015-Jan-21 19:32N 53°36' E 008°31'0 0.0
2015-Jan-21 18:32N 53°36' E 008°31'0 0.0
2015-Jan-21 17:32N 53°36' E 008°31'0 0.0
2015-Jan-21 16:32N 53°36' E 008°31'0 0.0
2015-Jan-21 15:32N 53°36' E 008°31'0 0.0
2015-Jan-21 14:32N 53°36' E 008°31'0 0.0
2015-Jan-21 13:32N 53°36' E 008°31'0 0.0
2015-Jan-21 12:32N 53°36' E 008°31'0 0.0
2015-Jan-21 11:32N 53°36' E 008°31'0 0.0
2015-Jan-21 10:32N 53°36' E 008°31'0 0.0
2015-Jan-21 09:32N 53°36' E 008°31'0 0.0
2015-Jan-21 08:32N 53°36' E 008°31'0 0.0
2015-Jan-21 07:29N 53°36' E 008°31'0 0.0
2015-Jan-21 06:32N 53°36' E 008°31'0 0.0
2015-Jan-21 05:29N 53°36' E 008°31'0 0.0
2015-Jan-21 04:32N 53°36' E 008°31'1 1.5
2015-Jan-21 03:34N 53°37' E 008°29'1211.8
2015-Jan-21 02:34N 53°44' E 008°14'1312.4
2015-Jan-21 01:33N 53°52' E 007°57'10 9.8
2015-Jan-21 00:33N 53°54' E 007°40'1412.6
2015-Jan-20 23:28N 53°53' E 007°17'2621.0
2015-Jan-20 22:13N 53°47' E 006°34'1621.4
2015-Jan-20 21:29N 53°43' E 006°08'2022.0
2015-Jan-20 20:33N 53°37' E 005°36'2222.5
2015-Jan-20 19:34N 53°30' E 005°00'2121.5
2015-Jan-20 18:34N 53°15' E 004°34'2322.1
2015-Jan-20 17:31N 52°54' E 004°18'2122.1
2015-Jan-20 16:33N 52°37' E 003°56'2222.1
2015-Jan-20 15:33N 52°22' E 003°30'6220.8
2015-Jan-20 12:33N 51°51' E 002°02'1716.7
2015-Jan-20 11:33N 51°52' E 001°35'1010.5
2015-Jan-20 10:34N 51°56' E 001°19'3 2.5
2015-Jan-20 09:31N 51°58' E 001°17'0 0.0
2015-Jan-20 08:31N 51°58' E 001°17'0 0.0
2015-Jan-20 07:31N 51°58' E 001°17'0 0.0
2015-Jan-20 06:31N 51°58' E 001°17'0 0.0
2015-Jan-20 05:31N 51°58' E 001°17'0 0.0
2015-Jan-20 04:31N 51°58' E 001°17'0 0.0
2015-Jan-20 03:29N 51°58' E 001°17'0 0.0
2015-Jan-20 02:25N 51°58' E 001°17'0 0.0
2015-Jan-20 01:32N 51°58' E 001°17'0 0.0
2015-Jan-20 00:31N 51°58' E 001°17'0 0.0
2015-Jan-19 23:31N 51°58' E 001°17'0 0.0
2015-Jan-19 22:31N 51°58' E 001°17'0 0.0
2015-Jan-19 21:31N 51°58' E 001°17'0 0.0
2015-Jan-19 20:31N 51°58' E 001°17'0 0.0
2015-Jan-19 19:31N 51°58' E 001°17'0 0.0
2015-Jan-19 18:31N 51°58' E 001°17'0 0.0
2015-Jan-19 17:31N 51°58' E 001°17'0 0.0
2015-Jan-19 16:31N 51°58' E 001°17'0 0.0
2015-Jan-19 15:31N 51°58' E 001°17'0 0.0
2015-Jan-19 14:31N 51°58' E 001°17'0 0.0
2015-Jan-19 13:31N 51°58' E 001°17'0 0.0
2015-Jan-19 12:31N 51°58' E 001°17'0 0.0
2015-Jan-19 11:31N 51°58' E 001°17'0 0.0
2015-Jan-19 10:31N 51°58' E 001°17'0 0.0
2015-Jan-19 09:31N 51°58' E 001°17'0 0.0
2015-Jan-19 08:31N 51°58' E 001°17'0 0.0
2015-Jan-19 07:31N 51°58' E 001°17'0 0.0
2015-Jan-19 06:28N 51°58' E 001°17'0 0.0
2015-Jan-19 05:31N 51°58' E 001°17'0 0.0
2015-Jan-19 04:31N 51°58' E 001°17'0 0.0
2015-Jan-19 03:31N 51°58' E 001°17'0 0.0
2015-Jan-19 02:31N 51°58' E 001°17'0 0.0
2015-Jan-19 01:31N 51°58' E 001°17'0 0.0
2015-Jan-19 00:31N 51°58' E 001°17'0 0.0
2015-Jan-18 23:31N 51°58' E 001°17'0 0.0
2015-Jan-18 22:33N 51°58' E 001°17'2 1.8
2015-Jan-18 21:33N 51°56' E 001°19'10 9.7
2015-Jan-18 20:33N 51°53' E 001°34'7 7.4
2015-Jan-18 19:34N 51°51' E 001°45'9 9.4
2015-Jan-18 18:34N 51°42' E 001°49'1414.5
2015-Jan-18 17:34N 51°28' E 001°48'1414.4
2015-Jan-18 16:34N 51°14' E 001°40'1111.1
2015-Jan-18 15:33N 51°03' E 001°36'1313.3
2015-Jan-18 14:33N 50°52' E 001°25'30017.7
2015-Jan-17 21:33N 48°45' W 005°37'1918.8
2015-Jan-17 20:33N 48°29' W 005°51'58620.2
2015-Jan-16 15:33N 39°09' W 009°52'1918.7
2015-Jan-16 14:33N 38°50' W 009°51'1818.6
2015-Jan-16 13:33N 38°32' W 009°48'1818.5
2015-Jan-16 12:33N 38°14' W 009°44'1818.2
2015-Jan-16 11:33N 37°56' W 009°38'1918.9
2015-Jan-16 10:33N 37°38' W 009°32'7217.4
2015-Jan-16 06:22N 36°38' W 008°41'15920.3
2015-Jan-15 22:30N 35°60' W 005°29'1919.5
2015-Jan-15 21:33N 36°05' W 005°07'24121.8
2015-Jan-15 10:30N 36°50' W 000°13'8521.5
2015-Jan-15 06:33N 37°10' E 001°31'2321.3
2015-Jan-15 05:29N 37°14' E 001°59'2521.4
2015-Jan-15 04:18N 37°19' E 002°30'4022.1
2015-Jan-15 02:29N 37°27' E 003°20'  
Track history (hours):
 
Tides and Currents Weather Stations Pressure Air Temp Water Temp Dewpoint Dewpoint Depression Visibility Wind Speed Wind Dir Waves Ship Positions

Ice Star

Last reported at 2015-Jan-25 01:33 UTC. Time now 2015-Jan-25 14:24 UTC.
Position N 57°50' E 010°24'.

Length 367 m; draft 12.3 m.

Type: Ship. MMSI: 220596000.

Date/timePositionNaut miles runAvg speedWind from/ knotsBaromVisibWave heightAir tempDewpointWater temp
2015-Jan-25 01:33N 57°50' E 010°24'1413.5
2015-Jan-25 00:33N 57°50' E 010°49'1414.1
2015-Jan-24 23:34N 57°44' E 011°13'1413.5
2015-Jan-24 22:33N 57°37' E 011°35'9 9.2
2015-Jan-24 21:33N 57°41' E 011°50'1 0.8
2015-Jan-24 20:31N 57°41' E 011°52'0 0.0
2015-Jan-24 19:31N 57°41' E 011°52'0 0.0
2015-Jan-24 18:31N 57°41' E 011°52'0 0.0
2015-Jan-24 17:31N 57°41' E 011°52'0 0.0
2015-Jan-24 16:28N 57°41' E 011°52'0 0.0
2015-Jan-24 15:31N 57°41' E 011°52'0 0.0
2015-Jan-24 14:31N 57°41' E 011°52'0 0.0
2015-Jan-24 13:31N 57°41' E 011°52'0 0.0
2015-Jan-24 12:31N 57°41' E 011°52'0 0.0
2015-Jan-24 11:31N 57°41' E 011°52'0 0.0
2015-Jan-24 10:31N 57°41' E 011°52'0 0.0
2015-Jan-24 09:31N 57°41' E 011°52'0 0.0
2015-Jan-24 08:31N 57°41' E 011°52'0 0.0
2015-Jan-24 07:31N 57°41' E 011°52'0 0.0
2015-Jan-24 06:31N 57°41' E 011°52'0 0.0
2015-Jan-24 05:31N 57°41' E 011°52'0 0.0
2015-Jan-24 04:31N 57°41' E 011°52'0 0.0
2015-Jan-24 03:31N 57°41' E 011°52'0 0.0
2015-Jan-24 02:31N 57°41' E 011°52'0 0.0
2015-Jan-24 01:28N 57°41' E 011°52'0 0.0
2015-Jan-24 00:31N 57°41' E 011°52'0 0.0
2015-Jan-23 23:31N 57°41' E 011°52'0 0.0
2015-Jan-23 22:31N 57°41' E 011°52'0 0.0
2015-Jan-23 21:28N 57°41' E 011°52'0 0.0
2015-Jan-23 20:31N 57°41' E 011°52'0 0.0
2015-Jan-23 19:31N 57°41' E 011°52'0 0.0
2015-Jan-23 18:31N 57°41' E 011°52'0 0.0
2015-Jan-23 17:31N 57°41' E 011°52'0 0.0
2015-Jan-23 16:31N 57°41' E 011°52'0 0.0
2015-Jan-23 15:31N 57°41' E 011°52'0 0.0
2015-Jan-23 14:31N 57°41' E 011°52'1 1.1
2015-Jan-23 13:33N 57°41' E 011°50'9 9.3
2015-Jan-23 12:33N 57°35' E 011°36'1010.5
2015-Jan-23 11:33N 57°41' E 011°19'1010.3
2015-Jan-23 10:33N 57°46' E 011°02'1514.9
2015-Jan-23 09:33N 57°50' E 010°35'1515.2
2015-Jan-23 08:33N 57°50' E 010°07'21413.0
2015-Jan-22 16:08N 54°43' E 007°03'915.2
2015-Jan-22 15:31N 54°34' E 007°10'1515.5
2015-Jan-22 14:33N 54°21' E 007°21'1515.3
2015-Jan-22 13:33N 54°07' E 007°33'1515.2
2015-Jan-22 12:33N 53°54' E 007°45'1414.5
2015-Jan-22 11:33N 53°48' E 008°08'1312.8
2015-Jan-22 10:33N 53°40' E 008°23'6 6.2
2015-Jan-22 09:33N 53°36' E 008°31'0 0.3
2015-Jan-22 08:32N 53°36' E 008°31'0 0.0
2015-Jan-22 07:32N 53°36' E 008°31'0 0.0
2015-Jan-22 06:32N 53°36' E 008°31'0 0.0
2015-Jan-22 05:29N 53°36' E 008°31'0 0.0
2015-Jan-22 04:32N 53°36' E 008°31'0 0.0
2015-Jan-22 03:32N 53°36' E 008°31'0 0.0
2015-Jan-22 02:32N 53°36' E 008°31'0 0.0
2015-Jan-22 01:32N 53°36' E 008°31'0 0.0
2015-Jan-22 00:32N 53°36' E 008°31'0 0.0
2015-Jan-21 23:32N 53°36' E 008°31'0 0.0
2015-Jan-21 22:50N 53°36' E 008°31'0 0.1
2015-Jan-21 22:41N 53°36' E 008°31'0 0.0
2015-Jan-21 22:29N 53°36' E 008°31'0 0.0
2015-Jan-21 21:32N 53°36' E 008°31'0 0.0
2015-Jan-21 20:32N 53°36' E 008°31'0 0.0
2015-Jan-21 19:32N 53°36' E 008°31'0 0.0
2015-Jan-21 18:32N 53°36' E 008°31'0 0.0
2015-Jan-21 17:32N 53°36' E 008°31'0 0.0
2015-Jan-21 16:32N 53°36' E 008°31'0 0.0
2015-Jan-21 15:32N 53°36' E 008°31'0 0.0
2015-Jan-21 14:32N 53°36' E 008°31'0 0.0
2015-Jan-21 13:32N 53°36' E 008°31'0 0.0
2015-Jan-21 12:32N 53°36' E 008°31'0 0.0
2015-Jan-21 11:32N 53°36' E 008°31'0 0.0
2015-Jan-21 10:32N 53°36' E 008°31'0 0.0
2015-Jan-21 09:32N 53°36' E 008°31'0 0.0
2015-Jan-21 08:32N 53°36' E 008°31'0 0.0
2015-Jan-21 07:29N 53°36' E 008°31'0 0.0
2015-Jan-21 06:32N 53°36' E 008°31'0 0.0
2015-Jan-21 05:29N 53°36' E 008°31'0 0.0
2015-Jan-21 04:32N 53°36' E 008°31'1 1.5
2015-Jan-21 03:34N 53°37' E 008°29'1211.8
2015-Jan-21 02:34N 53°44' E 008°14'1312.4
2015-Jan-21 01:33N 53°52' E 007°57'10 9.8
2015-Jan-21 00:33N 53°54' E 007°40'1412.6
2015-Jan-20 23:28N 53°53' E 007°17'2621.0
2015-Jan-20 22:13N 53°47' E 006°34'1621.4
2015-Jan-20 21:29N 53°43' E 006°08'2022.0
2015-Jan-20 20:33N 53°37' E 005°36'2222.5
2015-Jan-20 19:34N 53°30' E 005°00'2121.5
2015-Jan-20 18:34N 53°15' E 004°34'2322.1
2015-Jan-20 17:31N 52°54' E 004°18'2122.1
2015-Jan-20 16:33N 52°37' E 003°56'2222.1
2015-Jan-20 15:33N 52°22' E 003°30'6220.8
2015-Jan-20 12:33N 51°51' E 002°02'1716.7
2015-Jan-20 11:33N 51°52' E 001°35'1010.5
2015-Jan-20 10:34N 51°56' E 001°19'3 2.5
2015-Jan-20 09:31N 51°58' E 001°17'0 0.0
2015-Jan-20 08:31N 51°58' E 001°17'0 0.0
2015-Jan-20 07:31N 51°58' E 001°17'0 0.0
2015-Jan-20 06:31N 51°58' E 001°17'0 0.0
2015-Jan-20 05:31N 51°58' E 001°17'0 0.0
2015-Jan-20 04:31N 51°58' E 001°17'0 0.0
2015-Jan-20 03:29N 51°58' E 001°17'0 0.0
2015-Jan-20 02:25N 51°58' E 001°17'0 0.0
2015-Jan-20 01:32N 51°58' E 001°17'0 0.0
2015-Jan-20 00:31N 51°58' E 001°17'0 0.0
2015-Jan-19 23:31N 51°58' E 001°17'0 0.0
2015-Jan-19 22:31N 51°58' E 001°17'0 0.0
2015-Jan-19 21:31N 51°58' E 001°17'0 0.0
2015-Jan-19 20:31N 51°58' E 001°17'0 0.0
2015-Jan-19 19:31N 51°58' E 001°17'0 0.0
2015-Jan-19 18:31N 51°58' E 001°17'0 0.0
2015-Jan-19 17:31N 51°58' E 001°17'0 0.0
2015-Jan-19 16:31N 51°58' E 001°17'0 0.0
2015-Jan-19 15:31N 51°58' E 001°17'0 0.0
2015-Jan-19 14:31N 51°58' E 001°17'0 0.0
2015-Jan-19 13:31N 51°58' E 001°17'0 0.0
2015-Jan-19 12:31N 51°58' E 001°17'0 0.0
2015-Jan-19 11:31N 51°58' E 001°17'0 0.0
2015-Jan-19 10:31N 51°58' E 001°17'0 0.0
2015-Jan-19 09:31N 51°58' E 001°17'0 0.0
2015-Jan-19 08:31N 51°58' E 001°17'0 0.0
2015-Jan-19 07:31N 51°58' E 001°17'0 0.0
2015-Jan-19 06:28N 51°58' E 001°17'0 0.0
2015-Jan-19 05:31N 51°58' E 001°17'0 0.0
2015-Jan-19 04:31N 51°58' E 001°17'0 0.0
2015-Jan-19 03:31N 51°58' E 001°17'0 0.0
2015-Jan-19 02:31N 51°58' E 001°17'0 0.0
2015-Jan-19 01:31N 51°58' E 001°17'0 0.0
2015-Jan-19 00:31N 51°58' E 001°17'0 0.0
2015-Jan-18 23:31N 51°58' E 001°17'0 0.0
2015-Jan-18 22:33N 51°58' E 001°17'2 1.8
2015-Jan-18 21:33N 51°56' E 001°19'10 9.7
2015-Jan-18 20:33N 51°53' E 001°34'7 7.4
2015-Jan-18 19:34N 51°51' E 001°45'9 9.4
2015-Jan-18 18:34N 51°42' E 001°49'1414.5
2015-Jan-18 17:34N 51°28' E 001°48'1414.4
2015-Jan-18 16:34N 51°14' E 001°40'1111.1
2015-Jan-18 15:33N 51°03' E 001°36'1313.3
2015-Jan-18 14:33N 50°52' E 001°25'30017.7
2015-Jan-17 21:33N 48°45' W 005°37'1918.8
2015-Jan-17 20:33N 48°29' W 005°51'58620.2
2015-Jan-16 15:33N 39°09' W 009°52'1918.7
2015-Jan-16 14:33N 38°50' W 009°51'1818.6
2015-Jan-16 13:33N 38°32' W 009°48'1818.5
2015-Jan-16 12:33N 38°14' W 009°44'1818.2
2015-Jan-16 11:33N 37°56' W 009°38'1918.9
2015-Jan-16 10:33N 37°38' W 009°32'7217.4
2015-Jan-16 06:22N 36°38' W 008°41'15920.3
2015-Jan-15 22:30N 35°60' W 005°29'1919.5
2015-Jan-15 21:33N 36°05' W 005°07'24121.8
2015-Jan-15 10:30N 36°50' W 000°13'8521.5
2015-Jan-15 06:33N 37°10' E 001°31'2321.3
2015-Jan-15 05:29N 37°14' E 001°59'2521.4
2015-Jan-15 04:18N 37°19' E 002°30'4022.1
2015-Jan-15 02:29N 37°27' E 003°20'  

Dump ship's entire track history